Terminal Aerodrome Forecast
Issued by NWS

Home | Current Version | Previous Version | Graphics & Text | Print | Product List | Glossary On
Versions: 1 2 3 4 5 6 7 8 9 10 11 12 13 14 15 16 17 18 19
000
FTUS41 KCLE 231120
TAFFDY
TAF
KFDY 231120Z 2312/2412 06008KT P6SM SCT250
     FM231800 15010G18KT P6SM SCT050 BKN100
     FM240300 11011KT P6SM VCSH SCT020 OVC035
     FM240500 10010KT P6SM VCSH SCT015 OVC030=

USA.gov is the U.S. government's official web portal to all federal, state and local government web resources and services.